createdAt,value
2019-04-03T00:00:29.450Z,48.41
2019-04-03T00:01:00.784Z,48.02
2019-04-03T00:01:34.062Z,49.53
2019-04-03T00:02:05.262Z,49.61
2019-04-03T00:02:39.637Z,48.43
2019-04-03T00:03:10.904Z,47.84
2019-04-03T00:03:45.233Z,48.34
2019-04-03T00:04:16.483Z,48.55
2019-04-03T00:04:47.796Z,48.07
2019-04-03T00:05:19.030Z,47.96
2019-04-03T00:05:50.312Z,47.96
2019-04-03T00:06:21.650Z,48.12
2019-04-03T00:06:52.939Z,49.03
2019-04-03T00:07:24.315Z,50.36
2019-04-03T00:07:55.571Z,50.16
2019-04-03T00:08:28.624Z,48.74
2019-04-03T00:08:59.888Z,48.48
2019-04-03T00:09:31.228Z,49.44
2019-04-03T00:10:02.519Z,48.39
2019-04-03T00:10:33.771Z,48.86
2019-04-03T00:11:05.108Z,50.08
2019-04-03T00:11:39.490Z,49.37
2019-04-03T00:12:10.544Z,48.35
2019-04-03T00:12:42.277Z,48.29
2019-04-03T00:13:13.551Z,49.53
2019-04-03T00:13:44.808Z,49.27
2019-04-03T00:14:17.106Z,49.61
2019-04-03T00:14:51.168Z,49.50
2019-04-03T00:15:22.711Z,49.36
2019-04-03T00:15:53.984Z,48.68
2019-04-03T00:16:28.256Z,49.83
2019-04-03T00:16:59.574Z,49.85
2019-04-03T00:17:30.893Z,49.14
2019-04-03T00:18:02.235Z,48.97
2019-04-03T00:18:33.451Z,49.29
2019-04-03T00:19:04.796Z,49.07
2019-04-03T00:19:36.113Z,48.85
2019-04-03T00:20:07.435Z,48.69
2019-04-03T00:20:38.754Z,49.65
2019-04-03T00:21:09.977Z,48.81
2019-04-03T00:21:41.178Z,48.79
2019-04-03T00:22:12.493Z,50.25
2019-04-03T00:22:46.073Z,49.11
2019-04-03T00:23:16.774Z,49.06
2019-04-03T00:23:49.299Z,48.98
2019-04-03T00:24:22.496Z,48.93
2019-04-03T00:24:53.591Z,48.81
2019-04-03T00:25:25.017Z,49.67
2019-04-03T00:25:56.496Z,49.41
2019-04-03T00:26:30.337Z,49.43
2019-04-03T00:27:00.736Z,49.08
2019-04-03T00:27:31.990Z,49.23
2019-04-03T00:28:03.263Z,49.39
2019-04-03T00:28:34.460Z,50.14
2019-04-03T00:29:05.704Z,49.64
2019-04-03T00:29:37.068Z,49.92
2019-04-03T00:30:08.387Z,49.74
2019-04-03T00:30:39.652Z,50.49
2019-04-03T00:31:10.915Z,49.89
2019-04-03T00:31:42.180Z,51.43
2019-04-03T00:32:13.629Z,50.39
2019-04-03T00:32:44.977Z,49.95
2019-04-03T00:33:16.368Z,49.84
2019-04-03T00:33:47.717Z,51.21
2019-04-03T00:34:18.924Z,50.77
2019-04-03T00:34:50.258Z,50.50
2019-04-03T00:35:23.212Z,50.10
2019-04-03T00:35:54.495Z,50.02
2019-04-03T00:36:26.411Z,50.36
2019-04-03T00:36:57.703Z,50.20
2019-04-03T00:37:29.010Z,50.54
2019-04-03T00:38:01.432Z,50.73
2019-04-03T00:38:32.659Z,51.00
2019-04-03T00:39:04.120Z,51.35
2019-04-03T00:39:35.404Z,51.53
2019-04-03T00:40:06.757Z,51.03
2019-04-03T00:40:38.189Z,51.55
2019-04-03T00:41:09.474Z,51.49
2019-04-03T00:41:40.796Z,50.69
2019-04-03T00:42:14.075Z,50.86
2019-04-03T00:42:45.110Z,51.26
2019-04-03T00:43:16.409Z,52.02
2019-04-03T00:43:47.719Z,52.09
2019-04-03T00:44:18.974Z,51.13
2019-04-03T00:44:50.288Z,50.95
2019-04-03T00:45:24.151Z,51.15
2019-04-03T00:45:55.152Z,50.90
2019-04-03T00:46:26.659Z,51.12
2019-04-03T00:46:58.023Z,51.76
2019-04-03T00:47:29.314Z,51.20
2019-04-03T00:48:00.510Z,51.96
2019-04-03T00:48:31.766Z,52.48
2019-04-03T00:49:03.036Z,51.70
2019-04-03T00:49:34.267Z,51.80
2019-04-03T00:50:05.660Z,52.00
2019-04-03T00:50:36.942Z,51.42
2019-04-03T00:51:08.254Z,50.90
2019-04-03T00:51:39.518Z,51.43
2019-04-03T00:52:10.832Z,51.05
2019-04-03T00:52:42.171Z,52.04
2019-04-03T00:53:13.387Z,51.33
2019-04-03T00:53:44.607Z,51.09
2019-04-03T00:54:15.909Z,52.06
2019-04-03T00:54:47.123Z,52.19
2019-04-03T00:55:18.389Z,51.41
2019-04-03T00:55:49.682Z,51.21
2019-04-03T00:56:21.132Z,51.40
2019-04-03T00:56:52.379Z,51.67
2019-04-03T00:57:24.677Z,51.88
2019-04-03T00:57:56.924Z,51.58
2019-04-03T00:58:28.367Z,51.77
2019-04-03T00:58:59.658Z,51.69
2019-04-03T00:59:30.876Z,52.72
2019-04-03T01:00:04.648Z,53.08
2019-04-03T01:00:35.999Z,52.35
2019-04-03T01:01:07.239Z,52.45
2019-04-03T01:01:38.540Z,52.02
2019-04-03T01:02:09.764Z,52.75
2019-04-03T01:02:41.026Z,52.31
2019-04-03T01:03:12.497Z,51.95
2019-04-03T01:03:43.832Z,52.03
2019-04-03T01:04:15.137Z,52.08
2019-04-03T01:04:48.020Z,52.12
2019-04-03T01:05:19.244Z,52.25
2019-04-03T01:05:50.601Z,52.15
2019-04-03T01:06:21.944Z,52.34
2019-04-03T01:06:53.304Z,52.72
2019-04-03T01:07:24.627Z,53.17
2019-04-03T01:07:55.854Z,53.87
2019-04-03T01:08:27.826Z,54.03
2019-04-03T01:09:00.242Z,53.27
2019-04-03T01:09:31.547Z,52.82
2019-04-03T01:10:02.879Z,52.65
2019-04-03T01:10:34.134Z,52.55
2019-04-03T01:11:05.378Z,52.67
2019-04-03T01:11:36.648Z,52.79
2019-04-03T01:12:07.903Z,52.96
2019-04-03T01:12:39.189Z,53.50
2019-04-03T01:13:10.463Z,53.32
2019-04-03T01:13:41.725Z,53.30
2019-04-03T01:14:13.022Z,53.67
2019-04-03T01:14:44.303Z,53.65
2019-04-03T01:15:15.561Z,52.94
2019-04-03T01:15:49.064Z,53.16
2019-04-03T01:16:20.284Z,53.09
2019-04-03T01:16:51.510Z,54.39
2019-04-03T01:17:22.757Z,53.57
2019-04-03T01:17:54.068Z,53.53
2019-04-03T01:18:25.308Z,53.38
2019-04-03T01:18:56.571Z,53.10
2019-04-03T01:19:27.801Z,53.02
2019-04-03T01:19:59.050Z,53.44
2019-04-03T01:20:30.308Z,53.49
2019-04-03T01:21:01.603Z,53.49
2019-04-03T01:21:32.912Z,53.49
2019-04-03T01:22:06.968Z,53.66
2019-04-03T01:22:37.838Z,53.69
2019-04-03T01:23:09.237Z,53.93
2019-04-03T01:23:40.467Z,54.08
2019-04-03T01:24:11.778Z,54.25
2019-04-03T01:24:44.082Z,54.60
2019-04-03T01:25:15.327Z,54.82
2019-04-03T01:25:46.602Z,55.11
2019-04-03T01:26:17.897Z,55.22
2019-04-03T01:26:51.353Z,55.34
2019-04-03T01:27:22.593Z,55.12
2019-04-03T01:27:53.821Z,54.43
2019-04-03T01:28:25.089Z,54.48
2019-04-03T01:28:59.515Z,55.21
2019-04-03T01:29:30.808Z,55.68
2019-04-03T01:30:02.101Z,54.32
2019-04-03T01:30:33.537Z,54.70
2019-04-03T01:31:04.874Z,53.61
2019-04-03T01:31:36.218Z,54.65
2019-04-03T01:32:07.477Z,54.76
2019-04-03T01:32:38.743Z,54.18
2019-04-03T01:33:10.062Z,53.81
2019-04-03T01:33:41.367Z,52.94
2019-04-03T01:34:12.607Z,52.97
2019-04-03T01:34:43.887Z,53.68
2019-04-03T01:35:15.696Z,53.09
2019-04-03T01:35:48.249Z,53.21
2019-04-03T01:36:19.533Z,53.94
2019-04-03T01:36:50.919Z,53.70
2019-04-03T01:37:22.279Z,52.85
2019-04-03T01:37:53.544Z,52.35
2019-04-03T01:38:25.903Z,53.34
2019-04-03T01:38:57.243Z,53.20
2019-04-03T01:39:28.514Z,52.64
2019-04-03T01:40:02.978Z,52.48
2019-04-03T01:40:37.283Z,52.79
2019-04-03T01:41:08.668Z,52.86
2019-04-03T01:41:40.203Z,52.46
2019-04-03T01:42:11.478Z,52.35
2019-04-03T01:42:42.893Z,51.69
2019-04-03T01:43:14.188Z,51.48
2019-04-03T01:43:45.496Z,51.46
2019-04-03T01:44:16.796Z,51.44
2019-04-03T01:44:48.069Z,51.51
2019-04-03T01:45:19.568Z,51.16
2019-04-03T01:45:50.851Z,50.62
2019-04-03T01:46:22.175Z,50.41
2019-04-03T01:46:53.439Z,51.21
2019-04-03T01:47:27.391Z,50.86
2019-04-03T01:47:58.492Z,51.14
2019-04-03T01:48:29.757Z,50.76
2019-04-03T01:49:01.074Z,50.09
2019-04-03T01:49:32.305Z,50.49
2019-04-03T01:50:03.541Z,50.50
2019-04-03T01:50:34.797Z,50.99
2019-04-03T01:51:06.071Z,50.93
2019-04-03T01:51:37.362Z,50.86
2019-04-03T01:52:12.538Z,50.74
2019-04-03T01:52:46.565Z,50.74
2019-04-03T01:53:18.749Z,50.41
2019-04-03T01:53:50.131Z,50.77
2019-04-03T01:54:21.934Z,50.46
2019-04-03T01:54:53.392Z,50.73
2019-04-03T01:55:28.325Z,50.78
2019-04-03T01:55:59.605Z,50.49
2019-04-03T01:56:30.824Z,50.39
2019-04-03T01:57:02.081Z,50.13
2019-04-03T01:57:39.495Z,48.80
2019-04-03T01:58:10.825Z,48.70
2019-04-03T01:58:42.088Z,49.63
2019-04-03T01:59:13.393Z,50.11
2019-04-03T01:59:44.799Z,50.38
2019-04-03T02:00:16.129Z,50.47
2019-04-03T02:00:47.589Z,50.87
2019-04-03T02:01:18.830Z,50.62
2019-04-03T02:01:50.073Z,49.94
2019-04-03T02:02:24.371Z,49.55
2019-04-03T02:02:55.733Z,49.81
2019-04-03T02:03:26.979Z,50.48
2019-04-03T02:03:58.209Z,50.92
2019-04-03T02:04:29.480Z,51.32
2019-04-03T02:05:00.838Z,50.85
2019-04-03T02:05:32.082Z,50.66
2019-04-03T02:06:04.742Z,50.75
2019-04-03T02:06:35.999Z,50.93
2019-04-03T02:07:09.119Z,50.80
2019-04-03T02:07:40.545Z,51.06
2019-04-03T02:08:14.435Z,50.72
2019-04-03T02:08:45.486Z,50.51
2019-04-03T02:09:17.851Z,50.78
2019-04-03T02:09:49.246Z,51.48
2019-04-03T02:10:20.538Z,51.57
2019-04-03T02:10:54.043Z,51.11
2019-04-03T02:11:25.319Z,50.69
2019-04-03T02:11:56.653Z,50.98
2019-04-03T02:12:27.934Z,51.57
2019-04-03T02:12:59.375Z,50.82
2019-04-03T02:13:30.650Z,50.76
2019-04-03T02:14:01.941Z,50.83
2019-04-03T02:14:33.406Z,51.88
2019-04-03T02:15:04.704Z,51.60
2019-04-03T02:15:37.357Z,51.66
2019-04-03T02:16:08.627Z,51.37
2019-04-03T02:16:39.935Z,51.12
2019-04-03T02:17:11.184Z,52.09
2019-04-03T02:17:42.434Z,52.62
2019-04-03T02:18:15.119Z,51.74
2019-04-03T02:18:46.347Z,51.88
2019-04-03T02:19:17.662Z,51.99
2019-04-03T02:19:49.022Z,51.45
2019-04-03T02:20:20.403Z,51.46
2019-04-03T02:20:53.685Z,51.76
2019-04-03T02:21:27.258Z,51.68
2019-04-03T02:21:58.462Z,51.46
2019-04-03T02:22:30.402Z,52.02
2019-04-03T02:23:01.843Z,51.71
2019-04-03T02:23:33.255Z,51.57
2019-04-03T02:24:09.075Z,51.63
2019-04-03T02:24:41.549Z,51.80
2019-04-03T02:25:13.045Z,51.89
2019-04-03T02:25:46.806Z,51.99
2019-04-03T02:26:19.912Z,52.25
2019-04-03T02:26:51.568Z,52.34
2019-04-03T02:27:22.829Z,52.51
2019-04-03T02:27:54.062Z,52.74
2019-04-03T02:28:25.581Z,52.97
2019-04-03T02:28:56.924Z,53.10
2019-04-03T02:29:28.186Z,53.28
2019-04-03T02:29:59.398Z,53.43
2019-04-03T02:30:33.027Z,53.56
2019-04-03T02:31:04.491Z,53.70
2019-04-03T02:31:35.815Z,53.92
2019-04-03T02:32:09.662Z,54.09
2019-04-03T02:32:40.896Z,54.49
2019-04-03T02:33:12.239Z,54.63
2019-04-03T02:33:43.889Z,54.78
2019-04-03T02:34:15.464Z,54.85
2019-04-03T02:34:46.798Z,55.16
2019-04-03T02:35:18.197Z,55.25
2019-04-03T02:35:49.713Z,55.37
2019-04-03T02:36:21.053Z,55.35
2019-04-03T02:37:01.243Z,55.38
2019-04-03T02:37:32.848Z,55.42
2019-04-03T02:38:05.071Z,55.48
2019-04-03T02:38:36.645Z,55.58
2019-04-03T02:39:07.890Z,55.68
2019-04-03T02:39:39.182Z,55.87
2019-04-03T02:40:10.435Z,55.83
2019-04-03T02:40:41.819Z,55.88
2019-04-03T02:41:13.106Z,56.04
2019-04-03T02:41:44.466Z,55.87
2019-04-03T02:42:15.829Z,55.68
2019-04-03T02:42:47.132Z,55.42
2019-04-03T02:43:18.354Z,55.59
2019-04-03T02:43:49.660Z,55.88
2019-04-03T02:44:20.888Z,56.04
2019-04-03T02:44:54.215Z,56.16
2019-04-03T02:45:25.478Z,56.20
2019-04-03T02:45:58.014Z,56.17
2019-04-03T02:46:29.245Z,56.25
2019-04-03T02:47:01.457Z,56.25
2019-04-03T02:47:34.148Z,56.07
2019-04-03T02:48:06.537Z,55.96
2019-04-03T02:48:38.791Z,55.91
2019-04-03T02:49:11.043Z,56.00
2019-04-03T02:49:43.906Z,56.04
2019-04-03T02:50:15.552Z,56.18
2019-04-03T02:50:52.855Z,56.71
2019-04-03T02:51:26.026Z,57.49
2019-04-03T02:51:57.296Z,59.03
2019-04-03T02:52:30.736Z,59.61
2019-04-03T02:53:01.973Z,59.97
2019-04-03T02:53:33.223Z,60.10
2019-04-03T02:54:04.520Z,60.13
2019-04-03T02:54:36.236Z,60.08
2019-04-03T02:55:09.533Z,59.94
2019-04-03T02:56:39.962Z,60.94
2019-04-03T02:57:12.060Z,61.78
2019-04-03T02:57:43.681Z,62.24
2019-04-03T02:58:21.452Z,62.40
2019-04-03T02:58:53.391Z,62.53
2019-04-03T02:59:25.965Z,62.58
2019-04-03T02:59:58.742Z,62.68
2019-04-03T03:00:31.783Z,62.59
2019-04-03T03:01:05.319Z,62.37
2019-04-03T03:01:39.841Z,62.08
2019-04-03T03:02:12.585Z,61.99
2019-04-03T03:02:46.326Z,61.92
2019-04-03T03:03:18.542Z,61.99
2019-04-03T03:03:50.718Z,62.01
2019-04-03T03:04:22.443Z,61.93
2019-04-03T03:04:55.077Z,61.83
2019-04-03T03:05:29.669Z,61.98
2019-04-03T03:06:01.469Z,62.09
2019-04-03T03:06:33.679Z,62.18
2019-04-03T03:07:05.558Z,62.10
2019-04-03T03:07:37.394Z,62.14
2019-04-03T03:08:09.703Z,62.11
2019-04-03T03:08:42.554Z,62.20
2019-04-03T03:09:14.518Z,62.38
2019-04-03T03:09:47.703Z,62.32
2019-04-03T03:10:21.438Z,62.40
2019-04-03T03:10:53.295Z,62.16
2019-04-03T03:11:25.220Z,62.24
2019-04-03T03:11:57.207Z,62.04
2019-04-03T03:12:28.882Z,61.82
2019-04-03T03:13:02.062Z,61.70
2019-04-03T03:13:34.611Z,61.59
2019-04-03T03:14:07.854Z,61.63
2019-04-03T03:14:40.298Z,61.41
2019-04-03T03:15:14.750Z,61.23
2019-04-03T03:15:46.251Z,61.04
2019-04-03T03:16:18.764Z,60.85
2019-04-03T03:16:50.846Z,60.81
2019-04-03T03:17:25.699Z,60.91
2019-04-03T03:17:57.027Z,61.09
2019-04-03T03:18:28.720Z,61.21
2019-04-03T03:19:01.399Z,61.14
2019-04-03T03:19:33.907Z,61.08
2019-04-03T03:20:07.396Z,61.08
2019-04-03T03:20:40.293Z,61.14
2019-04-03T03:21:12.720Z,61.25
2019-04-03T03:21:45.426Z,61.36
2019-04-03T03:22:18.429Z,61.45
2019-04-03T03:22:51.082Z,61.43
2019-04-03T03:23:24.088Z,61.39
2019-04-03T03:23:56.761Z,61.24
2019-04-03T03:24:29.684Z,61.21
2019-04-03T03:25:02.258Z,61.10
2019-04-03T03:25:34.422Z,60.82
2019-04-03T03:26:08.697Z,60.86
2019-04-03T03:26:39.983Z,60.82
2019-04-03T03:27:11.368Z,61.24
2019-04-03T03:27:44.258Z,61.41
2019-04-03T03:28:16.791Z,61.49
2019-04-03T03:28:48.204Z,61.42
2019-04-03T03:29:24.571Z,61.35
2019-04-03T03:29:52.576Z,61.30
2019-04-03T03:30:38.949Z,61.25
2019-04-03T03:31:03.014Z,61.23
2019-04-03T03:31:59.718Z,61.11
2019-04-03T03:32:15.705Z,61.02
2019-04-03T03:32:37.808Z,60.91
2019-04-03T03:33:27.338Z,60.87
2019-04-03T03:33:42.791Z,60.82
2019-04-03T03:34:14.939Z,60.79
2019-04-03T03:34:54.960Z,60.95
2019-04-03T03:35:28.071Z,61.06
2019-04-03T03:35:52.479Z,61.19
2019-04-03T03:36:25.754Z,61.23
2019-04-03T03:37:00.157Z,61.15
2019-04-03T03:37:33.440Z,61.26
2019-04-03T03:38:04.667Z,61.47
2019-04-03T03:38:38.247Z,61.84
2019-04-03T03:39:11.238Z,61.76
2019-04-03T03:39:45.865Z,61.88
2019-04-03T03:40:17.407Z,61.83
2019-04-03T03:40:51.289Z,62.08
2019-04-03T03:41:23.982Z,62.24
2019-04-03T03:41:57.494Z,62.37
2019-04-03T03:42:31.257Z,62.69
2019-04-03T03:43:05.030Z,63.06
2019-04-03T03:43:38.212Z,63.62
2019-04-03T03:44:11.785Z,64.28
2019-04-03T03:44:47.160Z,65.52
2019-04-03T03:45:20.600Z,67.19
2019-04-03T03:45:54.361Z,67.81
2019-04-03T03:46:28.693Z,67.64
2019-04-03T03:47:01.043Z,67.37
2019-04-03T03:47:32.387Z,66.74
2019-04-03T03:48:08.560Z,66.89
2019-04-03T03:48:39.888Z,66.95
2019-04-03T03:49:16.391Z,66.92
2019-04-03T03:49:48.596Z,66.74
2019-04-03T03:50:22.618Z,66.68
2019-04-03T03:50:55.700Z,66.77
2019-04-03T03:51:25.474Z,66.83
2019-04-03T03:51:57.088Z,66.77
2019-04-03T03:52:28.639Z,66.50
2019-04-03T03:53:01.301Z,66.45
2019-04-03T03:53:32.587Z,66.65
2019-04-03T03:54:04.298Z,66.73
2019-04-03T03:54:35.610Z,66.81
2019-04-03T03:55:10.222Z,66.79
2019-04-03T03:56:18.353Z,65.90
2019-04-03T03:56:49.617Z,65.89
2019-04-03T03:57:21.459Z,65.96
2019-04-03T03:57:52.980Z,65.48
2019-04-03T03:58:24.432Z,65.37
2019-04-03T03:58:55.716Z,65.38
2019-04-03T03:59:26.989Z,65.39
2019-04-03T04:00:00.331Z,65.29
2019-04-03T04:00:31.833Z,65.37
2019-04-03T04:01:03.148Z,65.51
2019-04-03T04:01:34.422Z,65.60
2019-04-03T04:02:06.519Z,65.56
2019-04-03T04:02:43.099Z,65.51
2019-04-03T04:03:12.034Z,65.46
2019-04-03T04:03:43.553Z,65.46
2019-04-03T04:04:15.662Z,65.52
2019-04-03T04:04:48.824Z,65.41
2019-04-03T04:05:22.138Z,65.31
2019-04-03T04:05:55.657Z,64.98
2019-04-03T04:06:29.065Z,64.90
2019-04-03T04:07:02.073Z,64.89
2019-04-03T04:07:36.469Z,64.94
2019-04-03T04:08:09.338Z,65.06
2019-04-03T04:08:40.376Z,65.15
2019-04-03T04:09:11.021Z,65.30
2019-04-03T04:09:42.406Z,65.37
2019-04-03T04:10:13.720Z,65.38
2019-04-03T04:10:44.986Z,65.41
2019-04-03T04:11:16.475Z,65.29
2019-04-03T04:11:48.612Z,65.27
2019-04-03T04:12:21.026Z,65.19
2019-04-03T04:12:52.485Z,65.07
2019-04-03T04:13:23.828Z,64.81
2019-04-03T04:13:55.118Z,64.68
2019-04-03T04:14:29.586Z,64.51
2019-04-03T04:15:00.852Z,64.59
2019-04-03T04:15:32.448Z,64.52
2019-04-03T04:16:04.827Z,64.44
2019-04-03T04:16:37.635Z,64.69
2019-04-03T04:17:14.734Z,64.71
2019-04-03T04:17:42.552Z,64.65
2019-04-03T04:18:15.329Z,64.65
2019-04-03T04:18:46.920Z,64.69
2019-04-03T04:19:18.282Z,64.75
2019-04-03T04:19:49.571Z,64.86
2019-04-03T04:20:20.942Z,64.85
2019-04-03T04:20:52.668Z,64.92
2019-04-03T04:21:24.049Z,65.01
2019-04-03T04:21:56.493Z,65.06
2019-04-03T04:22:28.247Z,64.35
2019-04-03T04:22:59.712Z,64.51
2019-04-03T04:23:33.139Z,64.38
2019-04-03T04:24:05.439Z,64.20
2019-04-03T04:24:36.792Z,64.14
2019-04-03T04:25:08.031Z,63.81
2019-04-03T04:25:44.392Z,63.73
2019-04-03T04:26:14.042Z,63.68
2019-04-03T04:26:45.384Z,63.54
2019-04-03T04:27:16.772Z,63.31
2019-04-03T04:27:48.024Z,62.90
2019-04-03T04:28:19.309Z,62.88
2019-04-03T04:28:51.509Z,62.56
2019-04-03T04:29:22.889Z,62.33
2019-04-03T04:29:54.434Z,61.59
2019-04-03T04:30:25.703Z,61.35
2019-04-03T04:30:57.012Z,61.69
2019-04-03T04:31:28.308Z,61.06
2019-04-03T04:31:59.566Z,60.68
2019-04-03T04:32:31.177Z,60.56
2019-04-03T04:33:02.422Z,60.49
2019-04-03T04:33:33.641Z,60.56
2019-04-03T04:34:04.871Z,60.22
2019-04-03T04:34:36.136Z,59.91
2019-04-03T04:35:10.311Z,59.65
2019-04-03T04:35:40.356Z,59.33
2019-04-03T04:36:11.711Z,59.27
2019-04-03T04:36:45.704Z,59.23
2019-04-03T04:37:16.928Z,59.09
2019-04-03T04:37:48.587Z,59.00
2019-04-03T04:38:19.902Z,58.83
2019-04-03T04:38:51.197Z,58.45
2019-04-03T04:39:24.139Z,58.27
2019-04-03T04:39:55.421Z,58.24
2019-04-03T04:40:26.660Z,57.92
2019-04-03T04:40:58.045Z,57.73
2019-04-03T04:41:32.196Z,57.42
2019-04-03T04:42:08.119Z,57.41
2019-04-03T04:42:39.429Z,56.99
2019-04-03T04:43:10.944Z,57.18
2019-04-03T04:43:42.262Z,57.03
2019-04-03T04:44:14.772Z,57.09
2019-04-03T04:44:47.751Z,56.97
2019-04-03T04:45:19.503Z,56.87
2019-04-03T04:45:50.895Z,56.81
2019-04-03T04:46:24.674Z,56.72
2019-04-03T04:46:56.107Z,56.48
2019-04-03T04:47:27.319Z,56.46
2019-04-03T04:48:01.520Z,56.60
2019-04-03T04:48:32.769Z,56.37
2019-04-03T04:49:05.719Z,55.77
2019-04-03T04:49:36.973Z,55.71
2019-04-03T04:50:10.099Z,55.69
2019-04-03T04:50:41.363Z,55.52
2019-04-03T04:51:12.672Z,55.35
2019-04-03T04:51:43.994Z,55.23
2019-04-03T04:52:15.282Z,55.16
2019-04-03T04:52:46.527Z,55.26
2019-04-03T04:53:19.649Z,55.20
2019-04-03T04:53:51.146Z,54.93
2019-04-03T04:54:22.744Z,54.74
2019-04-03T04:54:54.020Z,54.57
2019-04-03T04:55:30.521Z,54.41
2019-04-03T04:56:01.387Z,54.23
2019-04-03T04:56:32.691Z,53.88
2019-04-03T04:57:03.889Z,53.60
2019-04-03T04:57:35.232Z,53.43
2019-04-03T04:58:06.572Z,53.47
2019-04-03T04:58:37.892Z,53.20
2019-04-03T04:59:09.225Z,53.12
2019-04-03T04:59:44.317Z,52.61
2019-04-03T05:00:16.267Z,52.33
2019-04-03T05:00:47.878Z,52.13
2019-04-03T05:01:19.142Z,51.89
2019-04-03T05:01:52.683Z,51.99
2019-04-03T05:02:23.994Z,51.60
2019-04-03T05:02:57.020Z,51.42
2019-04-03T05:03:28.333Z,51.19
2019-04-03T05:03:59.874Z,51.06
2019-04-03T05:04:31.148Z,50.90
2019-04-03T05:05:02.480Z,50.83
2019-04-03T05:05:33.768Z,50.55
2019-04-03T05:06:05.080Z,50.39
2019-04-03T05:06:36.446Z,50.21
2019-04-03T05:07:07.702Z,50.17
2019-04-03T05:07:39.063Z,49.92
2019-04-03T05:08:10.378Z,50.01
2019-04-03T05:08:41.689Z,50.36
2019-04-03T05:09:12.970Z,50.24
2019-04-03T05:09:44.569Z,50.42
2019-04-03T05:10:17.784Z,50.07
2019-04-03T05:10:49.426Z,49.54
2019-04-03T05:11:20.762Z,49.34
2019-04-03T05:11:52.031Z,48.98
2019-04-03T05:12:23.313Z,48.98
2019-04-03T05:12:57.126Z,49.21
2019-04-03T05:13:28.392Z,48.45
2019-04-03T05:13:59.723Z,48.11
2019-04-03T05:14:31.043Z,47.92
2019-04-03T05:15:03.047Z,47.34
2019-04-03T05:15:34.670Z,47.15
2019-04-03T05:16:05.958Z,47.23
2019-04-03T05:16:37.277Z,47.17
2019-04-03T05:17:08.540Z,46.88
2019-04-03T05:17:39.851Z,46.53
2019-04-03T05:18:11.181Z,46.44
2019-04-03T05:18:42.452Z,46.25
2019-04-03T05:19:18.718Z,46.19
2019-04-03T05:19:48.941Z,46.35
2019-04-03T05:20:20.247Z,46.53
2019-04-03T05:20:51.783Z,46.44
2019-04-03T05:21:23.031Z,46.58
2019-04-03T05:21:54.399Z,46.54
2019-04-03T05:22:25.782Z,46.15
2019-04-03T05:22:57.367Z,46.16
2019-04-03T05:23:28.678Z,46.11
2019-04-03T05:24:11.039Z,45.87
2019-04-03T05:24:33.032Z,46.03
2019-04-03T05:25:04.379Z,46.12
2019-04-03T05:25:35.630Z,45.92
2019-04-03T05:26:06.859Z,46.67
2019-04-03T05:26:38.355Z,46.06
2019-04-03T05:27:09.721Z,45.78
2019-04-03T05:27:41.050Z,45.74
2019-04-03T05:28:12.283Z,45.18
2019-04-03T05:28:54.334Z,45.25
2019-04-03T05:29:16.488Z,45.68
2019-04-03T05:29:47.764Z,45.70
2019-04-03T05:30:20.552Z,46.09
2019-04-03T05:30:52.031Z,46.41
2019-04-03T05:31:23.421Z,46.60
2019-04-03T05:31:54.643Z,46.59
2019-04-03T05:32:25.859Z,46.77
2019-04-03T05:32:57.412Z,46.84
2019-04-03T05:33:28.870Z,47.03
2019-04-03T05:34:00.082Z,47.12
2019-04-03T05:34:31.476Z,47.01
2019-04-03T05:35:02.797Z,46.21
2019-04-03T05:35:34.035Z,46.78
2019-04-03T05:36:05.322Z,47.30
2019-04-03T05:36:36.662Z,47.19
2019-04-03T05:37:10.694Z,47.47
2019-04-03T05:37:40.882Z,47.34
2019-04-03T05:38:12.315Z,47.43
2019-04-03T05:38:43.563Z,48.15
2019-04-03T05:39:14.857Z,49.34
2019-04-03T05:39:46.270Z,47.71
2019-04-03T05:40:17.913Z,47.38
2019-04-03T05:40:49.438Z,46.80
2019-04-03T05:41:20.728Z,46.75
2019-04-03T05:41:52.001Z,46.62
2019-04-03T05:42:23.327Z,46.75
2019-04-03T05:42:54.549Z,46.84
2019-04-03T05:43:27.077Z,46.96
2019-04-03T05:43:58.367Z,47.09
2019-04-03T05:44:31.064Z,47.17
2019-04-03T05:45:04.594Z,47.59
2019-04-03T05:45:35.732Z,47.51
2019-04-03T05:46:07.046Z,47.58
2019-04-03T05:46:38.280Z,47.54
2019-04-03T05:47:09.545Z,46.52
2019-04-03T05:47:40.836Z,46.52
2019-04-03T05:48:13.561Z,46.69
2019-04-03T05:48:46.001Z,47.76
2019-04-03T05:49:19.273Z,48.25
2019-04-03T05:49:53.813Z,47.58
2019-04-03T05:50:24.348Z,47.12
2019-04-03T05:50:58.162Z,46.10
2019-04-03T05:51:30.361Z,46.21
2019-04-03T05:52:03.428Z,46.31
2019-04-03T05:52:35.109Z,46.62
2019-04-03T05:53:06.987Z,47.73
2019-04-03T05:53:38.342Z,46.66
2019-04-03T05:54:14.643Z,46.25
2019-04-03T05:54:45.547Z,46.55
2019-04-03T05:55:16.747Z,46.34
2019-04-03T05:55:48.131Z,46.07
2019-04-03T05:56:19.566Z,46.00
2019-04-03T05:56:51.789Z,45.92
2019-04-03T05:57:23.495Z,46.67
2019-04-03T05:57:54.718Z,46.17
2019-04-03T05:58:25.913Z,45.55
2019-04-03T05:59:00.645Z,44.75
2019-04-03T05:59:32.657Z,43.59
2019-04-03T06:00:06.126Z,43.62
2019-04-03T06:00:38.004Z,43.72
2019-04-03T06:01:11.478Z,44.11
2019-04-03T06:01:46.098Z,44.42
2019-04-03T06:02:19.861Z,44.72
2019-04-03T06:02:47.966Z,44.84
2019-04-03T06:03:19.180Z,44.33
2019-04-03T06:03:50.403Z,44.11
2019-04-03T06:04:21.637Z,44.48
2019-04-03T06:04:53.203Z,44.42
2019-04-03T06:05:24.487Z,43.42
2019-04-03T06:05:57.813Z,43.14
2019-04-03T06:06:28.671Z,42.77
2019-04-03T06:06:59.994Z,42.53
2019-04-03T06:07:31.226Z,42.34
2019-04-03T06:08:02.667Z,42.43
2019-04-03T06:08:34.844Z,42.03
2019-04-03T06:09:14.248Z,42.40
2019-04-03T06:09:48.355Z,42.53
2019-04-03T06:10:20.775Z,42.83
2019-04-03T06:10:52.037Z,42.80
2019-04-03T06:11:23.382Z,43.00
2019-04-03T06:11:54.819Z,43.80
2019-04-03T06:12:26.285Z,44.10
2019-04-03T06:12:57.645Z,44.95
2019-04-03T06:13:28.859Z,44.61
2019-04-03T06:14:00.157Z,44.37
2019-04-03T06:14:31.443Z,44.55
2019-04-03T06:15:03.030Z,43.72
2019-04-03T06:15:34.287Z,43.51
2019-04-03T06:16:06.726Z,43.86
2019-04-03T06:16:37.971Z,44.02
2019-04-03T06:17:09.267Z,44.54
2019-04-03T06:17:40.576Z,43.50
2019-04-03T06:18:13.905Z,43.68
2019-04-03T06:18:47.368Z,43.15
2019-04-03T06:19:17.780Z,43.41
2019-04-03T06:19:49.003Z,43.74
2019-04-03T06:20:20.583Z,43.95
2019-04-03T06:20:51.855Z,44.14
2019-04-03T06:21:26.108Z,44.23
2019-04-03T06:21:57.695Z,44.53
2019-04-03T06:22:29.030Z,44.40
2019-04-03T06:23:00.565Z,44.70
2019-04-03T06:23:31.761Z,44.93
2019-04-03T06:24:03.151Z,45.49
2019-04-03T06:24:34.668Z,45.44
2019-04-03T06:25:05.962Z,46.08
2019-04-03T06:25:37.286Z,46.18
2019-04-03T06:26:08.573Z,46.19
2019-04-03T06:26:39.887Z,46.03
2019-04-03T06:27:11.251Z,45.79
2019-04-03T06:27:45.443Z,45.61
2019-04-03T06:28:15.479Z,44.96
2019-04-03T06:28:47.763Z,44.83
2019-04-03T06:29:19.656Z,44.87
2019-04-03T06:29:53.461Z,44.81
2019-04-03T06:30:24.998Z,45.58
2019-04-03T06:30:57.141Z,46.62
2019-04-03T06:31:28.675Z,45.69
2019-04-03T06:32:00.303Z,45.21
2019-04-03T06:32:31.569Z,44.77
2019-04-03T06:33:02.797Z,44.88
2019-04-03T06:33:36.065Z,45.26
2019-04-03T06:34:08.001Z,44.74
2019-04-03T06:34:42.417Z,44.76
2019-04-03T06:35:13.722Z,44.72
2019-04-03T06:35:46.146Z,44.84
2019-04-03T06:36:18.210Z,44.83
2019-04-03T06:36:51.127Z,45.13
2019-04-03T06:37:23.335Z,45.28
2019-04-03T06:37:54.746Z,45.24
2019-04-03T06:38:26.039Z,45.40
2019-04-03T06:38:57.720Z,45.23
2019-04-03T06:39:31.502Z,45.29
2019-04-03T06:40:02.959Z,45.29
2019-04-03T06:40:35.529Z,45.47
2019-04-03T06:41:08.764Z,45.62
2019-04-03T06:41:41.986Z,46.13
2019-04-03T06:42:14.091Z,45.58
2019-04-03T06:42:45.725Z,45.39
2019-04-03T06:43:17.895Z,45.26
2019-04-03T06:43:50.220Z,45.08
2019-04-03T06:44:23.032Z,44.97
2019-04-03T06:44:54.400Z,45.03
2019-04-03T06:45:26.459Z,45.13
2019-04-03T06:45:58.488Z,45.04
2019-04-03T06:46:30.048Z,44.90
2019-04-03T06:47:02.013Z,45.00
2019-04-03T06:47:33.497Z,45.02
2019-04-03T06:48:05.569Z,44.92
2019-04-03T06:48:37.246Z,45.37
2019-04-03T06:49:09.010Z,44.75
2019-04-03T06:49:41.098Z,44.68
2019-04-03T06:50:13.397Z,44.56
2019-04-03T06:50:48.346Z,44.09
2019-04-03T06:51:19.899Z,43.70
2019-04-03T06:51:51.358Z,43.61
2019-04-03T06:52:22.600Z,43.77
2019-04-03T06:52:53.896Z,43.66
2019-04-03T06:53:27.891Z,43.47